createdAt,value
2023-03-30T00:00:00.818Z,17.67
2023-03-30T00:02:50.854Z,16.13
2023-03-30T00:05:38.652Z,15.70
2023-03-30T00:08:28.335Z,16.57
2023-03-30T00:11:17.317Z,15.93
2023-03-30T00:14:04.777Z,17.70
2023-03-30T00:16:53.490Z,17.80
2023-03-30T00:19:41.142Z,16.80
2023-03-30T00:22:28.963Z,16.37
2023-03-30T00:25:17.618Z,17.30
2023-03-30T00:28:05.096Z,17.07
2023-03-30T00:30:53.621Z,16.97
2023-03-30T00:33:46.341Z,17.50
2023-03-30T00:36:37.248Z,17.60
2023-03-30T00:39:26.629Z,17.57
2023-03-30T00:42:17.493Z,17.23
2023-03-30T00:45:17.834Z,16.67
2023-03-30T00:48:07.433Z,17.13
2023-03-30T00:51:03.376Z,16.10
2023-03-30T00:53:53.387Z,16.67
2023-03-30T00:56:40.959Z,16.00
2023-03-30T00:59:28.385Z,16.63
2023-03-30T01:02:15.951Z,17.37
2023-03-30T01:05:04.913Z,16.87
2023-03-30T01:07:53.348Z,17.37
2023-03-30T01:10:41.114Z,16.97
2023-03-30T01:13:29.510Z,17.37
2023-03-30T01:16:35.455Z,16.43
2023-03-30T01:19:44.570Z,19.10
2023-03-30T01:22:44.332Z,18.07
2023-03-30T01:25:57.332Z,17.20
2023-03-30T01:28:47.746Z,17.83
2023-03-30T01:31:38.291Z,17.47
2023-03-30T01:35:02.439Z,16.63
2023-03-30T01:38:09.057Z,17.57
2023-03-30T01:41:14.935Z,17.07
2023-03-30T01:44:24.019Z,17.40
2023-03-30T01:47:24.529Z,17.83
2023-03-30T01:50:13.837Z,18.30
2023-03-30T01:53:01.273Z,17.77
2023-03-30T01:55:55.524Z,17.77
2023-03-30T01:58:49.586Z,17.57
2023-03-30T02:01:38.191Z,17.47
2023-03-30T02:04:25.691Z,17.03
2023-03-30T02:07:16.167Z,17.37
2023-03-30T02:10:05.511Z,16.33
2023-03-30T02:12:53.382Z,17.87
2023-03-30T02:15:43.304Z,17.27
2023-03-30T02:18:30.713Z,18.10
2023-03-30T02:21:18.184Z,18.10
2023-03-30T02:24:07.057Z,17.90
2023-03-30T02:26:55.059Z,16.97
2023-03-30T02:29:43.642Z,16.57
2023-03-30T02:32:42.921Z,16.10
2023-03-30T02:35:49.029Z,17.10
2023-03-30T02:38:56.131Z,16.50
2023-03-30T02:41:54.826Z,16.70
2023-03-30T02:44:42.359Z,16.87
2023-03-30T02:47:38.709Z,16.77
2023-03-30T02:50:52.437Z,16.30
2023-03-30T02:53:49.325Z,17.83
2023-03-30T02:56:42.990Z,17.10
2023-03-30T02:59:45.654Z,18.20
2023-03-30T03:02:37.600Z,18.47
2023-03-30T03:05:26.361Z,18.50
2023-03-30T03:08:15.531Z,17.03
2023-03-30T03:11:03.135Z,17.07
2023-03-30T03:13:50.992Z,18.07
2023-03-30T03:16:38.690Z,16.83
2023-03-30T03:19:26.490Z,17.17
2023-03-30T03:22:13.858Z,18.57
2023-03-30T03:25:02.509Z,18.03
2023-03-30T03:27:50.062Z,17.33
2023-03-30T03:30:37.960Z,17.60
2023-03-30T03:33:25.742Z,17.17
2023-03-30T03:36:13.349Z,18.57
2023-03-30T03:39:00.796Z,18.43
2023-03-30T03:41:48.182Z,18.57
2023-03-30T03:44:37.570Z,18.53
2023-03-30T03:47:25.218Z,17.37
2023-03-30T03:50:12.709Z,19.10
2023-03-30T03:53:00.296Z,18.47
2023-03-30T03:55:47.850Z,18.63
2023-03-30T03:58:35.827Z,17.77
2023-03-30T04:01:23.213Z,17.43
2023-03-30T04:04:10.926Z,18.57
2023-03-30T04:06:58.374Z,18.57
2023-03-30T04:09:46.242Z,18.40
2023-03-30T04:12:33.925Z,17.97
2023-03-30T04:15:21.311Z,18.47
2023-03-30T04:18:08.891Z,17.87
2023-03-30T04:20:57.075Z,18.03
2023-03-30T04:23:49.275Z,17.23
2023-03-30T04:26:36.694Z,17.50
2023-03-30T04:29:24.356Z,17.63
2023-03-30T04:32:12.894Z,17.33
2023-03-30T04:35:00.379Z,17.90
2023-03-30T04:37:52.302Z,17.13
2023-03-30T04:40:39.774Z,17.97
2023-03-30T04:43:27.182Z,17.57
2023-03-30T04:46:14.623Z,17.83
2023-03-30T04:49:02.145Z,18.07
2023-03-30T04:51:49.622Z,17.37
2023-03-30T04:54:36.990Z,16.73
2023-03-30T04:57:24.533Z,17.83
2023-03-30T05:00:13.590Z,17.37
2023-03-30T05:03:01.104Z,18.13
2023-03-30T05:05:48.546Z,16.80
2023-03-30T05:08:35.892Z,18.67
2023-03-30T05:11:23.478Z,16.77
2023-03-30T05:14:10.917Z,17.13
2023-03-30T05:16:58.878Z,17.17
2023-03-30T05:19:46.669Z,16.97
2023-03-30T05:22:34.041Z,17.87
2023-03-30T05:25:21.848Z,16.43
2023-03-30T05:28:09.246Z,17.90
2023-03-30T05:30:56.844Z,17.37
2023-03-30T05:33:44.325Z,17.00
2023-03-30T05:36:31.931Z,16.60
2023-03-30T05:39:19.370Z,16.87
2023-03-30T05:42:07.292Z,17.13
2023-03-30T05:44:56.665Z,17.50
2023-03-30T05:47:44.131Z,14.97
2023-03-30T05:50:31.543Z,14.80
2023-03-30T05:53:19.005Z,14.97
2023-03-30T05:56:07.224Z,14.63
2023-03-30T05:58:54.636Z,15.30
2023-03-30T06:01:42.027Z,17.23
2023-03-30T06:04:29.467Z,18.10
2023-03-30T06:07:18.074Z,15.60
2023-03-30T06:10:06.054Z,15.23
2023-03-30T06:12:53.537Z,14.63
2023-03-30T06:15:42.245Z,14.50
2023-03-30T06:18:29.702Z,14.00
2023-03-30T06:21:17.095Z,12.33
2023-03-30T06:24:04.590Z,12.40
2023-03-30T06:26:52.271Z,12.80
2023-03-30T06:29:39.753Z,12.37
2023-03-30T06:32:27.255Z,12.27
2023-03-30T06:35:15.710Z,12.07
2023-03-30T06:38:03.466Z,10.87
2023-03-30T06:40:51.432Z,10.90
2023-03-30T06:43:39.460Z,11.00
2023-03-30T06:46:27.212Z,10.63
2023-03-30T06:49:14.725Z,11.00
2023-03-30T06:52:04.483Z,10.40
2023-03-30T06:54:53.670Z,10.70
2023-03-30T06:57:41.378Z,10.60
2023-03-30T07:00:29.628Z,9.67
2023-03-30T07:03:19.034Z,9.77
2023-03-30T07:06:07.735Z,9.77
2023-03-30T07:08:55.386Z,9.73
2023-03-30T07:11:43.260Z,10.23
2023-03-30T07:14:31.170Z,10.27
2023-03-30T07:17:18.596Z,11.00
2023-03-30T07:20:06.447Z,10.80
2023-03-30T07:22:53.963Z,11.37
2023-03-30T07:25:42.060Z,10.93
2023-03-30T07:28:29.540Z,10.77
2023-03-30T07:31:17.328Z,11.60
2023-03-30T07:34:04.808Z,11.77
2023-03-30T07:36:52.521Z,12.50
2023-03-30T07:39:40.397Z,13.23
2023-03-30T07:42:27.931Z,14.50
2023-03-30T07:45:16.702Z,11.33
2023-03-30T07:48:04.319Z,10.50
2023-03-30T07:50:52.434Z,9.97
2023-03-30T07:53:40.006Z,14.40
2023-03-30T07:56:27.406Z,11.30
2023-03-30T07:59:14.834Z,10.20
2023-03-30T08:02:02.448Z,9.53
2023-03-30T08:04:50.140Z,9.13
2023-03-30T08:07:38.164Z,9.37
2023-03-30T08:10:25.832Z,8.60
2023-03-30T08:13:13.382Z,7.70
2023-03-30T08:16:01.784Z,6.30
2023-03-30T08:18:49.246Z,6.20
2023-03-30T08:21:37.230Z,6.60
2023-03-30T08:24:24.643Z,6.87
2023-03-30T08:27:12.153Z,7.47
2023-03-30T08:30:00.283Z,6.70
2023-03-30T08:32:48.351Z,7.85
2023-03-30T08:35:36.012Z,7.10
2023-03-30T08:38:24.673Z,7.13
2023-03-30T08:41:31.701Z,7.20
2023-03-30T08:44:34.395Z,5.97
2023-03-30T08:47:33.622Z,7.53
2023-03-30T08:50:24.324Z,7.23
2023-03-30T08:53:12.343Z,6.67
2023-03-30T08:56:04.892Z,5.87
2023-03-30T08:59:01.948Z,5.23
2023-03-30T09:01:52.991Z,4.93
2023-03-30T09:04:43.577Z,5.47
2023-03-30T09:07:32.504Z,4.70
2023-03-30T09:10:21.882Z,5.00
2023-03-30T09:13:12.918Z,4.70
2023-03-30T09:16:06.027Z,4.87
2023-03-30T09:18:55.807Z,4.13
2023-03-30T09:21:43.823Z,4.30
2023-03-30T09:24:31.902Z,5.00
2023-03-30T09:27:22.560Z,4.77
2023-03-30T09:30:21.418Z,4.63
2023-03-30T09:33:21.781Z,4.67
2023-03-30T09:36:20.249Z,4.57
2023-03-30T09:39:12.099Z,4.03
2023-03-30T09:42:18.079Z,4.17
2023-03-30T09:45:17.906Z,4.33
2023-03-30T09:48:09.442Z,4.00
2023-03-30T09:50:57.170Z,4.00
2023-03-30T09:53:46.583Z,4.10
2023-03-30T09:56:37.482Z,3.50
2023-03-30T09:59:28.622Z,3.47
2023-03-30T10:02:16.544Z,3.57
2023-03-30T10:05:04.554Z,3.83
2023-03-30T10:08:19.478Z,3.90
2023-03-30T10:11:07.968Z,3.47
2023-03-30T10:13:55.555Z,3.93
2023-03-30T10:16:44.460Z,4.50
2023-03-30T10:19:36.952Z,4.33
2023-03-30T10:22:25.812Z,5.37
2023-03-30T10:25:18.589Z,4.57
2023-03-30T10:28:14.128Z,5.50
2023-03-30T10:31:03.368Z,5.67
2023-03-30T10:33:51.041Z,4.80
2023-03-30T10:36:40.351Z,5.20
2023-03-30T10:39:32.805Z,4.63
2023-03-30T10:42:25.699Z,5.10
2023-03-30T10:45:21.288Z,4.30
2023-03-30T10:48:20.999Z,4.40
2023-03-30T10:51:11.857Z,4.23
2023-03-30T10:54:14.901Z,4.03
2023-03-30T10:57:07.632Z,3.80
2023-03-30T10:59:57.357Z,3.77
2023-03-30T11:03:00.575Z,4.50
2023-03-30T11:05:49.940Z,3.57
2023-03-30T11:08:40.431Z,3.23
2023-03-30T11:11:36.756Z,3.10
2023-03-30T11:14:47.278Z,3.13
2023-03-30T11:17:35.922Z,3.10
2023-03-30T11:20:27.499Z,3.30
2023-03-30T11:23:14.868Z,3.10
2023-03-30T11:26:04.220Z,3.30
2023-03-30T11:29:16.087Z,3.17
2023-03-30T11:32:03.606Z,3.07
2023-03-30T11:34:54.118Z,2.90
2023-03-30T11:38:00.470Z,2.83
2023-03-30T11:40:49.931Z,2.90
2023-03-30T11:43:37.337Z,3.10
2023-03-30T11:46:43.474Z,3.38
2023-03-30T11:49:41.738Z,3.00
2023-03-30T11:52:38.067Z,3.60
2023-03-30T11:55:25.505Z,2.90
2023-03-30T11:58:14.760Z,3.57
2023-03-30T12:01:22.406Z,2.90
2023-03-30T12:04:12.902Z,2.87
2023-03-30T12:07:01.718Z,3.43
2023-03-30T12:09:53.467Z,3.07
2023-03-30T12:12:41.924Z,3.00
2023-03-30T12:15:35.323Z,2.43
2023-03-30T12:18:25.707Z,3.07
2023-03-30T12:21:28.162Z,2.13
2023-03-30T12:24:21.506Z,2.07
2023-03-30T12:27:11.705Z,2.20
2023-03-30T12:30:13.962Z,1.80
2023-03-30T12:33:12.241Z,2.13
2023-03-30T12:36:00.896Z,2.10
2023-03-30T12:38:50.158Z,1.90
2023-03-30T12:41:42.486Z,3.00
2023-03-30T12:44:39.855Z,2.23
2023-03-30T12:47:42.169Z,2.10
2023-03-30T12:50:32.394Z,2.20
2023-03-30T12:53:38.304Z,1.80
2023-03-30T12:56:36.812Z,1.83
2023-03-30T12:59:27.038Z,2.57
2023-03-30T13:02:32.681Z,1.97
2023-03-30T13:05:40.383Z,2.97
2023-03-30T13:08:34.103Z,2.67
2023-03-30T13:11:23.062Z,2.77
2023-03-30T13:14:26.522Z,2.60
2023-03-30T13:17:22.140Z,2.93
2023-03-30T13:20:29.194Z,2.47
2023-03-30T13:23:20.731Z,3.00
2023-03-30T13:26:33.943Z,2.60
2023-03-30T13:29:24.505Z,2.93
2023-03-30T13:32:27.019Z,3.23
2023-03-30T13:35:36.037Z,3.30
2023-03-30T13:38:23.458Z,2.80
2023-03-30T13:41:13.609Z,2.83
2023-03-30T13:44:39.772Z,2.70
2023-03-30T13:47:30.350Z,3.33
2023-03-30T13:50:24.927Z,2.83
2023-03-30T13:53:15.647Z,2.83
2023-03-30T13:56:07.092Z,3.77
2023-03-30T13:59:02.120Z,3.37
2023-03-30T14:01:57.278Z,3.20
2023-03-30T14:04:44.769Z,2.80
2023-03-30T14:07:41.925Z,2.90
2023-03-30T14:10:30.817Z,2.97
2023-03-30T14:13:18.666Z,2.30
2023-03-30T14:16:07.178Z,2.87
2023-03-30T14:19:06.949Z,2.33
2023-03-30T14:22:04.940Z,2.40
2023-03-30T14:24:58.484Z,2.80
2023-03-30T14:27:46.586Z,2.67
2023-03-30T14:30:34.752Z,2.30
2023-03-30T14:33:22.552Z,2.17
2023-03-30T14:36:12.572Z,2.40
2023-03-30T14:39:00.192Z,1.90
2023-03-30T14:41:47.673Z,1.97
2023-03-30T14:44:38.461Z,1.80
2023-03-30T14:47:27.432Z,1.40
2023-03-30T14:50:16.071Z,1.50
2023-03-30T14:53:03.574Z,1.90
2023-03-30T14:55:51.566Z,2.57
2023-03-30T14:58:39.146Z,3.27
2023-03-30T15:01:31.265Z,5.20
2023-03-30T15:04:19.386Z,2.30
2023-03-30T15:07:06.905Z,1.60
2023-03-30T15:09:55.064Z,1.80
2023-03-30T15:12:45.177Z,1.73
2023-03-30T15:15:32.918Z,1.80
2023-03-30T15:18:22.849Z,1.60
2023-03-30T15:21:11.046Z,2.00
2023-03-30T15:24:00.219Z,1.73
2023-03-30T15:26:49.207Z,2.03
2023-03-30T15:29:36.637Z,2.47
2023-03-30T15:32:31.614Z,1.70
2023-03-30T15:35:28.034Z,2.07
2023-03-30T15:38:17.050Z,2.20
2023-03-30T15:41:09.584Z,2.73
2023-03-30T15:43:58.571Z,2.53
2023-03-30T15:46:46.502Z,2.43
2023-03-30T15:49:46.861Z,2.50
2023-03-30T15:52:42.463Z,2.90
2023-03-30T15:55:31.239Z,3.20
2023-03-30T15:58:21.292Z,2.70
2023-03-30T16:01:11.139Z,2.37
2023-03-30T16:04:01.886Z,3.17
2023-03-30T16:06:49.578Z,2.57
2023-03-30T16:09:36.925Z,2.58
2023-03-30T16:12:29.021Z,2.43
2023-03-30T16:15:17.887Z,2.70
2023-03-30T16:18:05.363Z,2.30
2023-03-30T16:20:52.783Z,2.50
2023-03-30T16:23:40.280Z,2.70
2023-03-30T16:26:27.667Z,2.53
2023-03-30T16:29:24.792Z,2.60
2023-03-30T16:32:12.337Z,2.23
2023-03-30T16:34:59.741Z,2.93
2023-03-30T16:37:47.206Z,2.70
2023-03-30T16:40:42.976Z,2.80
2023-03-30T16:43:30.709Z,3.03
2023-03-30T16:46:19.981Z,3.00
2023-03-30T16:49:11.757Z,2.73
2023-03-30T16:52:01.084Z,3.27
2023-03-30T16:54:48.458Z,2.60
2023-03-30T16:57:36.086Z,2.93
2023-03-30T17:00:26.256Z,3.60
2023-03-30T17:03:13.942Z,3.17
2023-03-30T17:06:02.097Z,2.83
2023-03-30T17:08:49.772Z,2.67
2023-03-30T17:11:37.133Z,2.73
2023-03-30T17:14:24.518Z,3.23
2023-03-30T17:17:12.564Z,3.33
2023-03-30T17:20:02.081Z,2.50
2023-03-30T17:22:50.147Z,3.37
2023-03-30T17:25:39.880Z,2.97
2023-03-30T17:28:28.601Z,3.30
2023-03-30T17:31:20.281Z,3.00
2023-03-30T17:34:07.791Z,3.33
2023-03-30T17:36:55.334Z,3.97
2023-03-30T17:39:42.822Z,3.70
2023-03-30T17:42:30.357Z,3.90
2023-03-30T17:45:18.924Z,3.10
2023-03-30T17:48:07.545Z,3.77
2023-03-30T17:50:55.334Z,3.40
2023-03-30T17:53:42.864Z,3.60
2023-03-30T17:56:30.576Z,4.27
2023-03-30T17:59:18.537Z,3.23
2023-03-30T18:02:05.950Z,3.63
2023-03-30T18:04:53.501Z,4.13
2023-03-30T18:07:41.592Z,3.07
2023-03-30T18:10:33.478Z,3.00
2023-03-30T18:13:21.527Z,3.60
2023-03-30T18:16:12.636Z,3.87
2023-03-30T18:19:00.193Z,3.73
2023-03-30T18:21:47.554Z,3.40
2023-03-30T18:24:35.004Z,3.23
2023-03-30T18:27:22.386Z,2.97
2023-03-30T18:30:27.001Z,3.10
2023-03-30T18:33:17.898Z,4.20
2023-03-30T18:36:08.058Z,3.60
2023-03-30T18:38:55.848Z,4.10
2023-03-30T18:41:43.366Z,3.43
2023-03-30T18:44:30.879Z,3.37
2023-03-30T18:47:23.420Z,3.73
2023-03-30T18:50:19.500Z,3.83
2023-03-30T18:53:08.761Z,4.43
2023-03-30T18:56:04.675Z,4.10
2023-03-30T18:58:52.560Z,3.10
2023-03-30T19:01:50.793Z,3.20
2023-03-30T19:04:38.912Z,4.00
2023-03-30T19:07:27.631Z,2.93
2023-03-30T19:10:20.053Z,3.77
2023-03-30T19:13:07.582Z,3.40
2023-03-30T19:15:58.426Z,3.60
2023-03-30T19:18:49.472Z,3.43
2023-03-30T19:21:36.884Z,3.50
2023-03-30T19:24:25.415Z,3.97
2023-03-30T19:27:12.964Z,3.67
2023-03-30T19:30:00.484Z,3.77
2023-03-30T19:32:48.939Z,4.00
2023-03-30T19:35:36.425Z,4.20
2023-03-30T19:38:23.905Z,3.67
2023-03-30T19:41:11.374Z,4.43
2023-03-30T19:43:58.761Z,4.03
2023-03-30T19:46:46.218Z,4.47
2023-03-30T19:49:33.749Z,4.00
2023-03-30T19:52:21.764Z,4.53
2023-03-30T19:55:10.262Z,4.17
2023-03-30T19:57:57.656Z,4.40
2023-03-30T20:00:49.401Z,3.80
2023-03-30T20:03:37.011Z,4.30
2023-03-30T20:06:24.450Z,3.57
2023-03-30T20:09:11.912Z,4.23
2023-03-30T20:11:59.308Z,3.83
2023-03-30T20:14:46.956Z,3.60
2023-03-30T20:17:36.183Z,3.73
2023-03-30T20:20:25.346Z,3.60
2023-03-30T20:23:13.274Z,3.90
2023-03-30T20:26:04.176Z,4.43
2023-03-30T20:28:51.548Z,4.17
2023-03-30T20:31:39.004Z,4.60
2023-03-30T20:34:27.488Z,5.87
2023-03-30T20:37:14.870Z,9.07
2023-03-30T20:40:05.072Z,4.70
2023-03-30T20:42:52.474Z,4.13
2023-03-30T20:45:46.384Z,4.63
2023-03-30T20:48:40.091Z,5.13
2023-03-30T20:51:27.775Z,4.33
2023-03-30T20:54:15.669Z,4.87
2023-03-30T20:57:06.415Z,4.67
2023-03-30T20:59:54.160Z,4.53
2023-03-30T21:02:41.733Z,5.00
2023-03-30T21:05:29.207Z,4.53
2023-03-30T21:08:16.676Z,5.03
2023-03-30T21:11:04.702Z,4.80
2023-03-30T21:13:52.250Z,4.50
2023-03-30T21:16:41.898Z,4.60
2023-03-30T21:19:29.416Z,4.30
2023-03-30T21:22:18.774Z,4.70
2023-03-30T21:25:06.478Z,4.97
2023-03-30T21:27:53.891Z,4.50
2023-03-30T21:30:41.414Z,4.30
2023-03-30T21:33:29.507Z,3.83
2023-03-30T21:36:17.343Z,3.10
2023-03-30T21:39:04.809Z,3.47
2023-03-30T21:41:52.273Z,3.90
2023-03-30T21:44:39.669Z,3.20
2023-03-30T21:47:27.054Z,3.73
2023-03-30T21:50:14.487Z,3.20
2023-03-30T21:53:01.835Z,3.30
2023-03-30T21:55:49.250Z,2.20
2023-03-30T21:58:36.645Z,1.80
2023-03-30T22:01:24.449Z,1.73
2023-03-30T22:04:11.979Z,2.00
2023-03-30T22:06:59.502Z,2.57
2023-03-30T22:09:46.935Z,2.53
2023-03-30T22:12:34.422Z,3.60
2023-03-30T22:15:22.028Z,2.97
2023-03-30T22:18:10.751Z,2.90
2023-03-30T22:21:05.080Z,3.63
2023-03-30T22:23:55.882Z,4.73
2023-03-30T22:26:43.327Z,4.20
2023-03-30T22:29:30.718Z,4.20
2023-03-30T22:32:18.831Z,5.03
2023-03-30T22:35:06.814Z,5.00
2023-03-30T22:37:54.316Z,4.73
2023-03-30T22:40:42.020Z,5.90
2023-03-30T22:43:29.497Z,6.30
2023-03-30T22:46:16.931Z,5.83
2023-03-30T22:49:04.446Z,6.23
2023-03-30T22:51:53.137Z,4.73
2023-03-30T22:54:40.832Z,5.40
2023-03-30T22:57:28.467Z,5.80
2023-03-30T23:00:17.780Z,5.77
2023-03-30T23:03:05.407Z,5.00
2023-03-30T23:05:53.285Z,4.87
2023-03-30T23:08:40.686Z,5.00
2023-03-30T23:11:29.002Z,5.33
2023-03-30T23:14:16.416Z,4.87
2023-03-30T23:17:03.979Z,5.10
2023-03-30T23:19:53.927Z,5.70
2023-03-30T23:22:41.814Z,4.60
2023-03-30T23:25:29.189Z,4.40
2023-03-30T23:28:16.970Z,4.90
2023-03-30T23:31:14.402Z,3.80
2023-03-30T23:34:02.005Z,4.60
2023-03-30T23:36:49.708Z,4.23
2023-03-30T23:39:37.103Z,4.17
2023-03-30T23:42:24.543Z,4.30
2023-03-30T23:45:12.182Z,4.73
2023-03-30T23:47:59.654Z,4.17
2023-03-30T23:50:47.083Z,3.83
2023-03-30T23:53:34.504Z,4.57
2023-03-30T23:56:25.838Z,4.47
2023-03-30T23:59:13.776Z,4.30
